Terminal Aerodrome Forecast
Issued by NWS Bismarck, ND

Home | Current Version | Previous Version | Text Only | Print | Product List | Glossary Off
Versions: 1 2 3 4 5 6 7 8 9 10 11 12

201
FTUS43 KBIS 221139
TAFISN
TAF
KISN 221139Z 2212/2312 34012KT P6SM BKN100
     FM221700 36012KT P6SM BKN060
     FM230300 35007KT P6SM BKN070
     FM230600 35006KT P6SM SCT090=

USA.gov is the U.S. government's official web portal to all federal, state and local government web resources and services.